Time;durP1;ratioP1;P1;durP2;ratioP2;P2;SDS_P1;SDS_P2;PMS_P1;PMS_P2;Temp;Humidity;BMP_temperature;BMP_pressure;BME280_temperature;BME280_humidity;BME280_pressure;Samples;Min_cycle;Max_cycle;Signal;HPM_P1;HPM_P2
2023/10/14 00:01:30;;;;;;;5.80;2.95;;;21.80;1.00;;;;;;6851483;19;2005835;-70
2023/10/14 00:04:04;;;;;;;7.57;3.17;;;21.70;1.00;;;;;;7363189;19;20015;-70
2023/10/14 00:06:38;;;;;;;4.45;2.72;;;21.80;1.00;;;;;;7361668;19;20190;-70
2023/10/14 00:09:11;;;;;;;6.03;3.00;;;21.70;1.00;;;;;;7361436;19;20529;-70
2023/10/14 00:11:51;;;;;;;6.90;2.85;;;21.60;1.00;;;;;;7362086;19;20014;-71
2023/10/14 00:14:23;;;;;;;6.13;2.85;;;21.50;1.00;;;;;;7361295;19;20029;-70
2023/10/14 00:16:53;;;;;;;6.40;2.72;;;21.50;1.00;;;;;;7360767;19;20010;-71
2023/10/14 00:19:24;;;;;;;7.35;3.20;;;21.40;1.00;;;;;;7361039;19;20054;-71
2023/10/14 00:21:55;;;;;;;6.05;3.38;;;21.40;1.00;;;;;;7362707;19;20082;-69
2023/10/14 00:24:28;;;;;;;9.07;3.47;;;21.50;1.00;;;;;;7362051;19;20015;-70
2023/10/14 00:27:07;;;;;;;7.45;3.47;;;21.40;1.00;;;;;;7360630;19;20014;-69
2023/10/14 00:29:37;;;;;;;6.22;3.45;;;21.40;1.00;;;;;;7359386;19;20014;-71
2023/10/14 00:32:07;;;;;;;5.80;3.25;;;21.30;1.00;;;;;;7360765;19;20041;-71
2023/10/14 00:34:37;;;;;;;6.20;3.45;;;21.30;1.00;;;;;;7361492;19;20013;-69
2023/10/14 00:37:08;;;;;;;10.57;3.72;;;21.40;1.00;;;;;;7359012;19;20082;-70
2023/10/14 00:39:38;;;;;;;6.60;4.07;;;21.40;1.00;;;;;;7358022;19;20012;-71
2023/10/14 00:42:12;;;;;;;4.93;3.50;;;21.40;1.00;;;;;;7360007;19;20033;-70
2023/10/14 00:44:42;;;;;;;7.32;3.92;;;21.40;1.00;;;;;;7362449;19;20014;-70
2023/10/14 00:47:15;;;;;;;7.03;4.07;;;21.30;1.00;;;;;;7359842;19;20010;-70
2023/10/14 00:49:45;;;;;;;6.45;3.90;;;21.20;1.00;;;;;;7357267;19;20017;-70
2023/10/14 00:52:18;;;;;;;7.25;4.07;;;21.20;1.00;;;;;;7362395;19;20011;-71
2023/10/14 00:54:58;;;;;;;9.82;4.05;;;21.10;1.00;;;;;;7360478;19;20463;-71
2023/10/14 00:57:39;;;;;;;8.95;4.07;;;21.10;1.00;;;;;;7359454;19;20014;-70
2023/10/14 01:00:12;;;;;;;8.18;3.35;;;21.20;1.00;;;;;;7359234;19;20010;-71
2023/10/14 01:02:47;;;;;;;7.35;3.95;;;21.20;1.00;;;;;;7361540;19;20011;-70
2023/10/14 01:05:19;;;;;;;8.63;3.83;;;21.40;1.00;;;;;;7358366;19;20038;-71
2023/10/14 01:07:49;;;;;;;8.55;4.18;;;21.40;1.00;;;;;;7356457;19;20025;-70
2023/10/14 01:10:24;;;;;;;8.07;4.47;;;21.30;1.00;;;;;;7358113;19;20102;-71
2023/10/14 01:12:57;;;;;;;10.43;4.45;;;21.30;1.00;;;;;;7360214;19;20553;-70
2023/10/14 01:15:29;;;;;;;8.20;4.30;;;21.30;1.00;;;;;;7360105;19;20098;-70
2023/10/14 01:18:00;;;;;;;8.68;4.18;;;21.20;1.00;;;;;;7359859;19;20407;-71
2023/10/14 01:20:37;;;;;;;7.50;4.15;;;21.30;1.00;;;;;;7358539;19;20824;-72
2023/10/14 01:23:14;;;;;;;7.88;4.53;;;21.20;1.00;;;;;;7360839;19;20018;-69
2023/10/14 01:25:47;;;;;;;10.43;4.32;;;21.20;1.00;;;;;;7357562;19;20006;-71
2023/10/14 01:28:21;;;;;;;5.88;4.32;;;21.20;1.00;;;;;;7356820;19;20804;-70
2023/10/14 01:31:34;;;;;;;8.52;4.80;;;21.10;1.00;;;;;;7357729;19;20011;-70
2023/10/14 01:34:05;;;;;;;6.22;4.38;;;21.00;1.00;;;;;;6853322;19;2004820;-70
2023/10/14 01:36:37;;;;;;;8.20;4.72;;;21.00;1.00;;;;;;7359649;19;20665;-70
2023/10/14 01:39:21;;;;;;;10.40;4.68;;;20.90;1.00;;;;;;7361282;19;20020;-70
2023/10/14 01:41:53;;;;;;;9.48;4.43;;;20.90;1.00;;;;;;7359721;19;20010;-70
2023/10/14 01:44:25;;;;;;;12.73;5.38;;;20.80;1.00;;;;;;7360940;19;20031;-71
2023/10/14 01:46:55;;;;;;;13.68;5.25;;;20.70;1.00;;;;;;7360120;19;20010;-71
2023/10/14 01:49:27;;;;;;;9.60;5.65;;;20.70;1.00;;;;;;7361410;19;20403;-70
2023/10/14 01:51:59;;;;;;;7.30;5.10;;;20.60;1.00;;;;;;7363926;19;20006;-69
2023/10/14 01:54:32;;;;;;;8.30;5.60;;;20.60;1.00;;;;;;7380233;19;20040;-70
2023/10/14 01:57:05;;;;;;;16.33;5.53;;;20.50;1.00;;;;;;7359096;19;20007;-70
2023/10/14 01:59:35;;;;;;;8.80;5.57;;;20.50;1.00;;;;;;7358785;19;20593;-70
2023/10/14 02:02:05;;;;;;;8.02;4.97;;;20.40;1.00;;;;;;7360922;19;27529;-70
2023/10/14 02:04:36;;;;;;;12.25;5.68;;;20.40;1.00;;;;;;7360733;19;20037;-70
2023/10/14 02:07:18;;;;;;;9.93;5.57;;;20.40;1.00;;;;;;7359676;19;20018;-69
2023/10/14 02:09:55;;;;;;;8.55;5.10;;;20.30;1.00;;;;;;7357366;19;20086;-70
2023/10/14 02:12:25;;;;;;;10.57;5.75;;;20.30;1.00;;;;;;7361187;19;20014;-70
2023/10/14 02:15:03;;;;;;;8.52;5.25;;;20.20;1.00;;;;;;7361149;19;21301;-70
2023/10/14 02:17:33;;;;;;;8.82;5.40;;;20.20;1.00;;;;;;7358114;19;20011;-70
2023/10/14 02:20:20;;;;;;;9.63;5.50;;;20.20;1.00;;;;;;7357774;19;20712;-70
2023/10/14 02:22:50;;;;;;;7.57;5.47;;;20.10;1.00;;;;;;7358354;19;20011;-71
2023/10/14 02:25:27;;;;;;;7.35;5.45;;;20.00;1.00;;;;;;7358577;19;20017;-70
2023/10/14 02:27:57;;;;;;;7.97;5.07;;;20.00;1.00;;;;;;7357070;19;20134;-70
2023/10/14 02:30:27;;;;;;;11.27;6.40;;;20.00;1.00;;;;;;7356366;19;20081;-70
2023/10/14 02:32:58;;;;;;;8.75;5.30;;;20.00;1.00;;;;;;7359377;19;20017;-70
2023/10/14 02:35:30;;;;;;;8.43;4.95;;;19.90;1.00;;;;;;7359585;19;20031;-70
2023/10/14 02:38:01;;;;;;;10.05;5.35;;;19.90;1.00;;;;;;7357295;19;20013;-70
2023/10/14 02:40:37;;;;;;;11.38;5.28;;;19.90;1.00;;;;;;7357356;19;20093;-70
2023/10/14 02:43:07;;;;;;;7.78;5.32;;;19.90;1.00;;;;;;7358773;19;20043;-70
2023/10/14 02:45:39;;;;;;;9.18;5.40;;;19.90;1.00;;;;;;7359686;19;20056;-70
2023/10/14 02:48:11;;;;;;;11.20;5.03;;;19.90;1.00;;;;;;7358157;19;20034;-70
2023/10/14 02:50:50;;;;;;;9.10;5.30;;;20.00;1.00;;;;;;7357186;19;20053;-70
2023/10/14 02:53:22;;;;;;;7.40;5.30;;;20.00;1.00;;;;;;7358107;19;20142;-71
2023/10/14 02:56:04;;;;;;;8.82;5.40;;;20.00;1.00;;;;;;7363304;19;20015;-71
2023/10/14 02:58:34;;;;;;;11.82;5.80;;;20.00;1.00;;;;;;7359990;19;20010;-71
2023/10/14 03:01:12;;;;;;;7.60;5.65;;;20.00;1.00;;;;;;7356799;19;20007;-70
2023/10/14 03:03:42;;;;;;;8.32;5.30;;;20.10;1.00;;;;;;7361691;19;20023;-71
2023/10/14 03:06:14;;;;;;;10.68;5.88;;;20.10;1.00;;;;;;7358765;19;20039;-71
2023/10/14 03:08:57;;;;;;;13.90;5.30;;;20.10;1.00;;;;;;7358492;19;20399;-71
2023/10/14 03:11:31;;;;;;;11.18;5.95;;;20.10;1.00;;;;;;6846349;19;2005083;-71
2023/10/14 03:14:01;;;;;;;9.50;5.93;;;20.00;1.00;;;;;;7359903;19;20041;-70
2023/10/14 03:16:31;;;;;;;9.13;5.45;;;20.00;1.00;;;;;;7356456;19;20045;-71
2023/10/14 03:19:01;;;;;;;8.60;5.82;;;20.00;1.00;;;;;;7357294;19;20050;-70
2023/10/14 03:21:34;;;;;;;10.32;6.07;;;20.00;1.00;;;;;;7355303;19;20035;-70
2023/10/14 03:24:05;;;;;;;8.60;5.70;;;20.00;1.00;;;;;;7359277;19;20007;-70
2023/10/14 03:26:37;;;;;;;9.15;5.53;;;19.90;1.00;;;;;;7357103;19;20014;-70
2023/10/14 03:29:16;;;;;;;10.40;5.30;;;20.00;1.00;;;;;;7359681;19;20050;-70
2023/10/14 03:31:46;;;;;;;8.75;5.32;;;19.90;1.00;;;;;;7362125;19;20436;-71
2023/10/14 03:34:17;;;;;;;13.63;5.82;;;19.90;1.00;;;;;;7366126;19;20015;-70
2023/10/14 03:36:50;;;;;;;9.68;5.55;;;20.00;1.00;;;;;;7359881;19;20022;-71
2023/10/14 03:39:28;;;;;;;8.77;5.68;;;20.00;1.00;;;;;;7363018;19;20022;-71
2023/10/14 03:42:10;;;;;;;9.32;5.65;;;20.00;1.00;;;;;;7365597;19;20007;-70
2023/10/14 03:44:42;;;;;;;10.80;5.40;;;20.10;1.00;;;;;;7365602;19;20476;-70
2023/10/14 03:47:17;;;;;;;10.23;5.57;;;20.10;1.00;;;;;;7364049;19;20014;-70
2023/10/14 03:49:55;;;;;;;10.00;5.47;;;20.10;1.00;;;;;;7360203;19;20015;-70
2023/10/14 03:52:26;;;;;;;7.25;5.38;;;20.20;1.00;;;;;;7364054;19;20022;-70
2023/10/14 03:54:56;;;;;;;8.00;5.95;;;20.20;1.00;;;;;;7364978;19;20018;-70
2023/10/14 03:57:36;;;;;;;10.23;5.00;;;20.20;1.00;;;;;;7361568;19;20019;-71
2023/10/14 04:00:12;;;;;;;13.13;5.45;;;20.20;1.00;;;;;;7363668;19;21087;-71
2023/10/14 04:02:43;;;;;;;10.68;6.15;;;20.20;1.00;;;;;;7365741;19;20011;-70
2023/10/14 04:05:15;;;;;;;8.75;5.90;;;20.20;1.00;;;;;;7365822;19;20010;-70
2023/10/14 04:07:47;;;;;;;9.82;5.70;;;20.20;1.00;;;;;;7362483;19;20036;-71
2023/10/14 04:10:22;;;;;;;9.10;5.45;;;20.20;1.00;;;;;;7363004;19;20103;-71
2023/10/14 04:13:04;;;;;;;14.77;6.45;;;20.20;1.00;;;;;;7362898;19;20611;-70
2023/10/14 04:15:45;;;;;;;10.00;4.95;;;19.50;1.00;;;;;;7364764;19;20018;-70
2023/10/14 04:18:22;;;;;;;11.13;4.93;;;17.40;9.70;;;;;;7359980;19;20010;-70
2023/10/14 04:21:10;;;;;;;8.27;4.63;;;17.00;35.40;;;;;;7359797;19;20030;-70
2023/10/14 04:23:59;;;;;;;6.38;4.10;;;16.80;61.80;;;;;;7365173;19;20471;-71
2023/10/14 04:26:34;;;;;;;7.80;4.07;;;16.80;42.00;;;;;;6851935;19;2004953;-71
2023/10/14 04:29:16;;;;;;;11.73;4.28;;;16.60;58.70;;;;;;7363069;19;20018;-70
2023/10/14 04:31:55;;;;;;;6.30;3.88;;;16.50;78.90;;;;;;7362257;19;20010;-71
2023/10/14 04:34:26;;;;;;;6.68;3.83;;;16.40;89.60;;;;;;7362591;19;20081;-70
2023/10/14 04:36:56;;;;;;;6.80;3.90;;;16.30;99.40;;;;;;7363006;19;20018;-70
2023/10/14 04:39:29;;;;;;;5.80;3.75;;;16.10;99.90;;;;;;7361220;19;20499;-70
2023/10/14 04:42:03;;;;;;;6.63;4.30;;;16.10;99.90;;;;;;7363493;19;20010;-71
2023/10/14 04:44:45;;;;;;;6.95;4.90;;;16.10;99.90;;;;;;7362910;19;20057;-70
2023/10/14 04:47:19;;;;;;;7.57;4.60;;;16.10;99.90;;;;;;7363074;19;20022;-70
2023/10/14 04:49:52;;;;;;;8.18;4.55;;;16.10;99.90;;;;;;7359021;19;20015;-71
2023/10/14 04:52:22;;;;;;;9.07;4.53;;;16.00;99.90;;;;;;7363075;19;20639;-71
2023/10/14 04:55:06;;;;;;;8.63;4.50;;;16.00;99.90;;;;;;7363723;19;20779;-71
2023/10/14 04:57:40;;;;;;;5.88;4.40;;;16.00;99.90;;;;;;7361668;19;20492;-70
2023/10/14 05:00:30;;;;;;;7.40;4.57;;;16.00;99.90;;;;;;7360524;19;20114;-71
2023/10/14 05:03:01;;;;;;;6.93;4.20;;;16.00;99.90;;;;;;6853741;19;2004136;-71
2023/10/14 05:05:34;;;;;;;6.70;4.13;;;16.00;99.90;;;;;;7362029;19;20024;-70
2023/10/14 05:08:05;;;;;;;7.88;4.43;;;16.00;99.90;;;;;;7360822;19;20441;-70
2023/10/14 05:10:41;;;;;;;7.25;4.30;;;16.00;99.90;;;;;;7360409;19;20010;-70
2023/10/14 05:13:13;;;;;;;9.85;5.15;;;16.00;99.90;;;;;;7363223;19;20116;-70
2023/10/14 05:15:53;;;;;;;8.68;4.95;;;16.10;99.90;;;;;;7362885;19;20044;-71
2023/10/14 05:18:28;;;;;;;8.73;4.65;;;16.10;99.90;;;;;;7358914;19;20011;-71
2023/10/14 05:21:03;;;;;;;7.05;4.32;;;16.10;99.90;;;;;;7359900;19;20019;-71
2023/10/14 05:23:38;;;;;;;8.20;4.72;;;16.10;99.90;;;;;;7362468;19;20014;-71
2023/10/14 05:26:08;;;;;;;9.02;4.63;;;16.20;99.90;;;;;;7361715;19;20034;-71
2023/10/14 05:28:42;;;;;;;8.10;4.72;;;16.30;99.90;;;;;;7362565;19;20041;-70
2023/10/14 05:31:16;;;;;;;7.20;5.30;;;16.20;99.90;;;;;;7361005;19;20103;-70
2023/10/14 05:33:48;;;;;;;11.80;5.93;;;16.20;99.90;;;;;;7364759;19;20032;-70
2023/10/14 05:36:18;;;;;;;10.05;5.10;;;16.30;99.90;;;;;;7364825;19;20651;-70
2023/10/14 05:38:48;;;;;;;8.90;5.05;;;16.30;99.90;;;;;;7371476;19;20019;-70
2023/10/14 05:41:18;;;;;;;7.40;4.95;;;16.30;99.90;;;;;;7364382;19;20018;-71
2023/10/14 05:43:51;;;;;;;9.80;5.25;;;16.40;99.90;;;;;;7369814;19;20011;-70
2023/10/14 05:46:23;;;;;;;9.70;4.40;;;16.40;99.90;;;;;;7360430;19;20130;-70
2023/10/14 05:48:53;;;;;;;7.78;5.07;;;16.40;93.20;;;;;;7360238;19;20818;-70
2023/10/14 05:51:24;;;;;;;9.75;5.18;;;16.40;81.70;;;;;;7358926;19;20015;-70
2023/10/14 05:53:53;;;;;;;7.68;4.80;;;16.30;72.20;;;;;;7361875;19;20018;-70
2023/10/14 05:56:27;;;;;;;6.75;4.32;;;16.30;82.40;;;;;;7360720;19;20656;-70
2023/10/14 05:58:58;;;;;;;8.35;4.38;;;16.40;61.90;;;;;;7359863;19;20026;-70
2023/10/14 06:01:30;;;;;;;7.32;4.45;;;16.40;63.20;;;;;;7358123;19;20018;-71
2023/10/14 06:04:01;;;;;;;7.93;4.63;;;16.40;64.10;;;;;;7359278;19;20470;-70
2023/10/14 06:06:31;;;;;;;6.20;3.85;;;16.40;62.50;;;;;;7358000;19;20007;-70
2023/10/14 06:09:03;;;;;;;6.75;3.28;;;16.60;19.80;;;;;;7361102;19;20026;-70
2023/10/14 06:11:33;;;;;;;5.38;3.08;;;16.70;17.80;;;;;;7358324;19;20014;-71
2023/10/14 06:14:05;;;;;;;7.40;3.22;;;16.70;9.10;;;;;;7361208;19;20018;-71
2023/10/14 06:16:38;;;;;;;4.10;2.60;;;16.80;8.30;;;;;;7358035;19;20112;-71
2023/10/14 06:19:10;;;;;;;6.15;2.90;;;16.90;1.00;;;;;;7358851;19;20181;-71
2023/10/14 06:21:41;;;;;;;5.95;2.67;;;16.90;1.00;;;;;;7357157;19;20097;-71
2023/10/14 06:24:12;;;;;;;4.43;2.35;;;16.90;1.00;;;;;;7360818;19;20011;-70
2023/10/14 06:26:42;;;;;;;6.07;3.10;;;17.00;1.00;;;;;;7358073;19;20011;-70
2023/10/14 06:29:13;;;;;;;4.75;2.63;;;17.10;1.00;;;;;;7361358;19;20015;-71
2023/10/14 06:31:48;;;;;;;5.22;2.35;;;17.00;1.00;;;;;;7360180;19;20374;-71
2023/10/14 06:34:20;;;;;;;2.83;2.00;;;17.10;1.00;;;;;;7358045;19;20078;-71
2023/10/14 06:36:50;;;;;;;4.85;2.20;;;17.10;1.00;;;;;;7356605;19;20010;-69
2023/10/14 06:39:26;;;;;;;2.33;1.90;;;17.10;1.00;;;;;;7355502;19;20958;-71
2023/10/14 06:41:56;;;;;;;3.45;2.30;;;17.20;1.00;;;;;;7356371;19;20380;-70
2023/10/14 06:44:29;;;;;;;4.47;2.22;;;17.20;1.00;;;;;;7355643;19;20010;-70
2023/10/14 06:47:02;;;;;;;5.03;1.85;;;17.30;1.00;;;;;;7355709;19;20021;-70
2023/10/14 06:49:36;;;;;;;3.88;1.70;;;17.40;1.00;;;;;;7354851;19;20017;-70
2023/10/14 06:52:07;;;;;;;3.47;1.70;;;17.40;1.00;;;;;;7357650;19;20035;-71
2023/10/14 06:54:37;;;;;;;3.38;1.92;;;17.30;1.00;;;;;;7358672;19;20007;-70
2023/10/14 06:57:10;;;;;;;3.85;1.70;;;17.30;1.00;;;;;;7356682;19;20014;-70
2023/10/14 06:59:40;;;;;;;3.45;1.85;;;17.40;1.00;;;;;;7355612;19;20724;-71
2023/10/14 07:02:12;;;;;;;4.97;1.85;;;17.40;1.00;;;;;;7357146;19;20137;-72
2023/10/14 07:04:43;;;;;;;4.95;1.77;;;17.40;1.00;;;;;;7355323;19;20093;-71
2023/10/14 07:07:14;;;;;;;2.88;1.67;;;17.50;1.00;;;;;;7354817;19;20011;-70
2023/10/14 07:09:47;;;;;;;5.07;1.80;;;17.60;1.00;;;;;;7356689;19;20043;-71
2023/10/14 07:12:21;;;;;;;3.70;1.30;;;17.80;1.00;;;;;;7355384;19;20017;-71
2023/10/14 07:14:51;;;;;;;3.50;1.60;;;17.80;1.00;;;;;;7356854;19;20006;-71
2023/10/14 07:17:25;;;;;;;4.47;2.05;;;17.90;1.00;;;;;;7354877;19;20039;-71
2023/10/14 07:19:55;;;;;;;4.30;1.48;;;17.90;1.00;;;;;;7356226;19;20733;-71
2023/10/14 07:22:25;;;;;;;3.80;1.33;;;18.00;1.00;;;;;;7356838;19;20014;-71
2023/10/14 07:24:56;;;;;;;2.88;1.30;;;18.00;1.00;;;;;;7358871;19;20495;-71
2023/10/14 07:27:26;;;;;;;4.15;1.40;;;18.00;1.00;;;;;;7355040;19;20575;-70
2023/10/14 07:29:56;;;;;;;5.65;1.83;;;18.10;1.00;;;;;;7355035;19;20021;-71
2023/10/14 07:32:30;;;;;;;3.20;1.10;;;18.10;1.00;;;;;;7357178;19;20102;-71
2023/10/14 07:35:02;;;;;;;3.58;1.30;;;18.00;1.00;;;;;;7357047;19;20017;-70
2023/10/14 07:37:33;;;;;;;3.97;1.60;;;18.10;1.00;;;;;;7355287;19;20011;-71
2023/10/14 07:40:11;;;;;;;5.68;1.80;;;18.10;1.00;;;;;;7355020;19;20018;-70
2023/10/14 07:42:41;;;;;;;3.80;1.45;;;18.20;1.00;;;;;;7356241;19;20022;-71
2023/10/14 07:45:13;;;;;;;2.20;1.20;;;18.30;1.00;;;;;;7358280;19;20010;-71
2023/10/14 07:47:46;;;;;;;3.97;1.27;;;18.40;1.00;;;;;;7354482;19;20010;-69
2023/10/14 07:50:16;;;;;;;6.78;1.35;;;18.60;1.00;;;;;;7355809;19;20014;-70
2023/10/14 07:52:47;;;;;;;3.45;1.30;;;18.80;1.00;;;;;;7357742;19;20019;-70
2023/10/14 07:55:22;;;;;;;3.75;1.35;;;18.80;1.00;;;;;;7357557;19;20011;-71
2023/10/14 07:57:52;;;;;;;3.60;1.40;;;18.90;1.00;;;;;;7352659;19;20006;-71
2023/10/14 08:00:36;;;;;;;2.80;1.00;;;19.10;1.00;;;;;;7353469;19;20031;-71
2023/10/14 08:03:14;;;;;;;3.38;1.75;;;19.00;1.00;;;;;;7356545;19;20039;-72
2023/10/14 08:05:48;;;;;;;2.00;1.02;;;19.10;1.00;;;;;;7352377;19;20425;-71
2023/10/14 08:08:19;;;;;;;3.42;1.55;;;18.90;1.00;;;;;;7355699;19;20010;-71
2023/10/14 08:10:51;;;;;;;1.70;1.17;;;18.70;1.00;;;;;;7353271;19;20014;-71
2023/10/14 08:13:23;;;;;;;4.55;1.50;;;18.80;1.00;;;;;;7354591;19;20035;-70
2023/10/14 08:15:54;;;;;;;2.90;1.63;;;19.10;1.00;;;;;;7355472;19;20018;-72
2023/10/14 08:18:28;;;;;;;4.28;1.35;;;19.10;1.00;;;;;;7357968;19;20139;-70
2023/10/14 08:20:59;;;;;;;1.90;0.95;;;19.00;1.00;;;;;;7358349;19;20959;-71
2023/10/14 08:23:30;;;;;;;4.43;1.60;;;18.70;1.00;;;;;;7362884;19;20014;-71
2023/10/14 08:26:02;;;;;;;3.28;1.10;;;18.80;1.00;;;;;;7360877;19;20015;-71
2023/10/14 08:28:32;;;;;;;3.33;1.30;;;18.80;1.00;;;;;;7360648;19;20011;-72
2023/10/14 08:31:04;;;;;;;4.60;1.42;;;18.70;1.00;;;;;;7361314;19;20082;-70
2023/10/14 08:33:38;;;;;;;3.10;1.27;;;18.60;1.00;;;;;;7362889;19;20077;-71
2023/10/14 08:36:08;;;;;;;1.88;1.25;;;18.80;1.00;;;;;;7360894;19;20002;-71
2023/10/14 08:38:39;;;;;;;4.78;1.42;;;18.80;1.00;;;;;;7360246;19;24303;-71
2023/10/14 08:41:09;;;;;;;9.25;1.63;;;18.80;1.00;;;;;;7358688;19;20027;-71
2023/10/14 08:43:39;;;;;;;4.15;1.40;;;18.60;1.00;;;;;;7358482;19;20034;-70
2023/10/14 08:46:10;;;;;;;3.17;1.40;;;18.30;1.00;;;;;;7360888;19;20022;-70
2023/10/14 08:48:46;;;;;;;2.72;1.45;;;18.30;1.00;;;;;;7361439;19;20021;-70
2023/10/14 08:51:17;;;;;;;7.97;1.63;;;18.10;1.00;;;;;;7361954;19;20608;-70
2023/10/14 08:53:53;;;;;;;4.65;1.20;;;18.10;1.00;;;;;;7361131;19;20047;-71
2023/10/14 08:56:24;;;;;;;4.65;1.38;;;18.20;1.00;;;;;;7356055;19;20015;-70
2023/10/14 08:58:55;;;;;;;3.22;1.00;;;17.80;1.00;;;;;;7358108;19;20089;-72
2023/10/14 09:01:28;;;;;;;4.07;1.13;;;16.80;20.90;;;;;;7359089;19;20129;-70
2023/10/14 09:04:00;;;;;;;1.70;0.70;;;16.30;78.60;;;;;;7360760;19;20069;-72
2023/10/14 09:06:31;;;;;;;1.10;0.60;;;15.70;99.90;;;;;;7360713;19;20092;-72
2023/10/14 09:09:01;;;;;;;1.67;0.75;;;15.60;99.90;;;;;;7362306;19;20701;-69
2023/10/14 09:11:34;;;;;;;2.38;0.90;;;15.60;99.90;;;;;;7359727;19;20006;-71
2023/10/14 09:14:06;;;;;;;2.85;0.90;;;15.40;99.90;;;;;;7360104;19;20033;-70
2023/10/14 09:16:37;;;;;;;1.90;0.90;;;15.30;99.90;;;;;;7359702;19;20014;-72
2023/10/14 09:19:11;;;;;;;1.95;1.00;;;15.40;99.90;;;;;;7361895;19;20986;-71
2023/10/14 09:21:43;;;;;;;1.35;1.20;;;15.40;99.90;;;;;;7358853;19;20010;-71
2023/10/14 09:24:13;;;;;;;1.75;1.20;;;15.30;99.90;;;;;;7361923;19;20019;-71
2023/10/14 09:26:46;;;;;;;2.53;1.05;;;15.20;99.90;;;;;;7359132;19;20044;-71
2023/10/14 09:29:16;;;;;;;2.45;1.27;;;15.20;99.90;;;;;;7357026;19;20126;-71
2023/10/14 09:31:48;;;;;;;2.20;1.30;;;15.40;99.90;;;;;;7360817;19;20015;-71
2023/10/14 09:34:27;;;;;;;2.15;1.38;;;15.30;99.90;;;;;;7361181;19;20962;-71
2023/10/14 09:36:58;;;;;;;2.60;1.33;;;15.30;99.90;;;;;;7360536;19;20490;-71
2023/10/14 09:39:33;;;;;;;2.28;1.25;;;15.10;99.90;;;;;;7362396;19;20020;-70
2023/10/14 09:42:04;;;;;;;2.53;1.33;;;15.30;99.90;;;;;;7360726;19;20015;-71
2023/10/14 09:44:36;;;;;;;3.40;1.50;;;15.20;99.90;;;;;;7360880;19;20011;-71
2023/10/14 09:47:09;;;;;;;2.28;1.80;;;15.40;99.90;;;;;;7359004;19;20013;-71
2023/10/14 09:49:44;;;;;;;2.92;1.55;;;15.70;99.90;;;;;;7358135;19;20023;-72
2023/10/14 09:52:16;;;;;;;2.45;1.67;;;15.70;99.90;;;;;;7362217;19;20003;-71
2023/10/14 09:54:49;;;;;;;2.67;1.83;;;15.60;99.90;;;;;;7361173;19;20003;-71
2023/10/14 09:57:20;;;;;;;2.08;1.58;;;15.90;99.90;;;;;;7358198;19;20007;-72
2023/10/14 09:59:51;;;;;;;2.50;1.73;;;15.90;99.90;;;;;;7356821;19;20014;-71
2023/10/14 10:02:22;;;;;;;2.30;1.60;;;15.90;99.90;;;;;;7360126;19;20010;-71
2023/10/14 10:04:56;;;;;;;3.20;1.90;;;16.00;99.90;;;;;;7360577;19;20011;-71
2023/10/14 10:07:35;;;;;;;;;;;16.20;99.90;;;;;;7360960;19;20649;-71
2023/10/14 10:10:16;;;;;;;4.03;1.67;;;16.00;99.90;;;;;;7356698;19;19907;-71
2023/10/14 10:12:53;;;;;;;2.42;1.60;;;16.10;99.90;;;;;;7360762;19;20010;-72
2023/10/14 10:15:25;;;;;;;3.58;1.75;;;16.30;99.90;;;;;;7357398;19;20010;-74
2023/10/14 10:18:04;;;;;;;3.90;1.60;;;16.20;98.20;;;;;;7355492;19;20036;-71
2023/10/14 10:20:41;;;;;;;1.83;1.35;;;16.40;92.40;;;;;;7357137;19;20006;-71
2023/10/14 10:23:14;;;;;;;1.73;1.20;;;16.40;88.60;;;;;;7358516;19;20002;-71
2023/10/14 10:25:50;;;;;;;2.60;1.13;;;16.50;87.10;;;;;;7359813;19;20582;-71
2023/10/14 10:28:41;;;;;;;1.95;1.20;;;16.50;67.20;;;;;;7355927;19;20344;-72
2023/10/14 10:31:16;;;;;;;1.92;1.70;;;16.20;74.90;;;;;;7360136;19;20032;-71
2023/10/14 10:33:56;;;;;;;2.08;1.15;;;16.60;95.20;;;;;;7359459;19;20011;-72
2023/10/14 10:36:31;;;;;;;1.48;1.08;;;16.50;53.30;;;;;;7353393;19;20022;-70
2023/10/14 10:39:15;;;;;;;1.35;0.98;;;16.20;63.20;;;;;;7358302;19;20011;-72
2023/10/14 10:41:53;;;;;;;1.45;1.30;;;16.10;58.90;;;;;;7355709;19;20010;-72
2023/10/14 10:44:27;;;;;;;1.23;1.13;;;16.20;63.90;;;;;;7356951;19;20011;-72
2023/10/14 10:46:59;;;;;;;1.30;1.20;;;16.30;69.10;;;;;;7356520;19;20069;-71
2023/10/14 10:49:54;;;;;;;2.90;1.20;;;16.20;53.30;;;;;;7356461;19;20036;-72
2023/10/14 10:52:28;;;;;;;1.73;1.10;;;16.10;57.70;;;;;;7355479;19;20044;-72
2023/10/14 10:55:01;;;;;;;2.72;1.27;;;15.90;57.00;;;;;;7358847;19;20014;-72
2023/10/14 10:57:32;;;;;;;1.80;1.45;;;15.90;73.80;;;;;;7358907;19;20349;-73
2023/10/14 11:00:10;;;;;;;1.58;1.20;;;15.80;61.00;;;;;;7357065;19;20006;-72
2023/10/14 11:02:41;;;;;;;1.85;1.15;;;15.60;82.00;;;;;;7358104;19;20025;-71
2023/10/14 11:05:11;;;;;;;1.70;1.48;;;15.70;99.80;;;;;;7358185;19;20017;-71
2023/10/14 11:07:44;;;;;;;1.92;1.58;;;15.60;99.60;;;;;;7356466;19;20011;-71
2023/10/14 11:10:15;;;;;;;3.20;1.67;;;15.60;99.90;;;;;;7359079;19;20446;-72
2023/10/14 11:12:45;;;;;;;2.15;1.50;;;15.50;99.90;;;;;;7359775;19;20598;-72
2023/10/14 11:15:22;;;;;;;3.15;1.58;;;15.50;99.90;;;;;;7356214;19;20021;-71
2023/10/14 11:17:56;;;;;;;2.38;1.42;;;15.30;99.90;;;;;;7350790;19;20431;-71
2023/10/14 11:20:29;;;;;;;2.25;1.52;;;15.30;99.90;;;;;;7355423;19;20521;-72
2023/10/14 11:23:03;;;;;;;1.90;1.52;;;15.30;99.90;;;;;;7357995;19;20035;-71
2023/10/14 11:25:40;;;;;;;2.15;1.60;;;15.10;99.90;;;;;;7356393;19;20029;-71
2023/10/14 11:28:14;;;;;;;2.25;1.23;;;15.00;99.90;;;;;;7356131;19;20027;-71
2023/10/14 11:30:47;;;;;;;2.92;1.48;;;14.80;99.90;;;;;;7355910;19;20014;-72
2023/10/14 11:33:22;;;;;;;4.20;1.67;;;14.80;99.90;;;;;;7355787;19;20151;-72
2023/10/14 11:35:53;;;;;;;4.10;1.90;;;14.70;99.90;;;;;;7351680;19;20043;-72
2023/10/14 11:38:28;;;;;;;1.67;1.35;;;14.70;99.90;;;;;;7358079;19;20034;-71
2023/10/14 11:40:59;;;;;;;3.53;1.23;;;14.60;99.90;;;;;;7356116;19;20425;-70
2023/10/14 11:43:30;;;;;;;3.38;1.75;;;14.60;99.90;;;;;;7356627;19;20002;-70
2023/10/14 11:46:00;;;;;;;2.85;1.63;;;14.50;99.90;;;;;;7357926;19;20033;-71
2023/10/14 11:48:33;;;;;;;1.85;1.20;;;14.50;99.90;;;;;;7357651;19;20007;-71
2023/10/14 11:51:11;;;;;;;1.67;0.90;;;14.20;99.90;;;;;;7356378;19;20025;-71
2023/10/14 11:53:50;;;;;;;2.50;1.10;;;14.10;99.90;;;;;;7363626;19;20014;-71
2023/10/14 11:56:21;;;;;;;1.10;0.80;;;14.00;99.90;;;;;;7363215;19;20014;-70
2023/10/14 11:58:52;;;;;;;2.53;1.52;;;13.70;70.70;;;;;;7364806;19;20380;-71
2023/10/14 12:01:24;;;;;;;2.15;1.20;;;13.70;88.50;;;;;;7364663;19;20093;-73
2023/10/14 12:03:55;;;;;;;1.77;1.25;;;13.80;97.60;;;;;;7365692;19;20022;-71
2023/10/14 12:06:25;;;;;;;1.45;1.00;;;13.60;93.90;;;;;;7364746;19;20014;-70
2023/10/14 12:08:58;;;;;;;1.65;1.10;;;13.50;94.30;;;;;;7365302;19;20045;-71
2023/10/14 12:11:29;;;;;;;3.55;1.60;;;13.40;92.00;;;;;;7363851;19;20014;-71
2023/10/14 12:13:59;;;;;;;2.60;1.23;;;13.50;99.90;;;;;;7365166;19;20531;-71
2023/10/14 12:16:29;;;;;;;2.38;1.30;;;13.60;99.90;;;;;;7362007;19;20018;-71
2023/10/14 12:19:03;;;;;;;1.45;1.20;;;13.70;99.90;;;;;;7366495;19;20492;-71
2023/10/14 12:21:33;;;;;;;1.77;1.40;;;13.70;99.90;;;;;;7363760;19;20006;-72
2023/10/14 12:24:09;;;;;;;2.20;1.20;;;13.90;99.90;;;;;;7365791;19;20016;-72
2023/10/14 12:26:43;;;;;;;2.63;1.38;;;13.80;99.90;;;;;;7365907;19;20014;-71
2023/10/14 12:29:15;;;;;;;2.58;1.85;;;14.00;99.90;;;;;;7364932;19;20563;-71
2023/10/14 12:31:46;;;;;;;2.97;1.92;;;14.10;99.90;;;;;;7362223;19;20547;-71
2023/10/14 12:34:19;;;;;;;3.08;2.05;;;14.40;99.90;;;;;;7363126;19;20034;-71
2023/10/14 12:36:52;;;;;;;3.30;1.70;;;14.30;99.90;;;;;;7357836;19;20649;-71
2023/10/14 12:39:26;;;;;;;2.10;1.80;;;14.30;99.90;;;;;;7361416;19;20021;-71
2023/10/14 12:42:03;;;;;;;;;;;14.40;99.90;;;;;;7364566;19;20021;-72
2023/10/14 12:44:35;;;;;;;2.72;1.83;;;14.40;99.90;;;;;;7361803;19;19914;-72
2023/10/14 12:47:10;;;;;;;5.05;2.00;;;14.60;99.90;;;;;;7362519;19;20074;-72
2023/10/14 12:49:42;;;;;;;3.13;1.92;;;14.70;99.90;;;;;;7362455;19;20074;-71
2023/10/14 12:52:15;;;;;;;2.22;1.95;;;14.70;99.90;;;;;;7363908;19;20002;-73
2023/10/14 12:54:52;;;;;;;3.22;2.03;;;14.60;99.90;;;;;;7361628;19;20002;-71
2023/10/14 12:57:22;;;;;;;2.22;1.40;;;14.70;99.90;;;;;;7359314;19;20047;-71
2023/10/14 12:59:52;;;;;;;4.68;2.10;;;14.60;99.90;;;;;;7358639;19;20013;-73
2023/10/14 13:02:22;;;;;;;1.50;1.23;;;14.50;99.90;;;;;;7361392;19;20018;-72
2023/10/14 13:04:52;;;;;;;1.17;0.90;;;14.60;99.90;;;;;;7359471;19;20514;-72
2023/10/14 13:07:22;;;;;;;1.52;1.20;;;14.40;99.90;;;;;;7360549;19;20419;-72
2023/10/14 13:09:55;;;;;;;1.42;1.30;;;14.30;99.90;;;;;;7359864;19;20018;-72
2023/10/14 13:12:28;;;;;;;1.95;1.13;;;14.40;99.90;;;;;;7363221;19;20073;-72
2023/10/14 13:14:58;;;;;;;2.15;1.20;;;14.30;99.90;;;;;;7360329;19;20006;-72
2023/10/14 13:17:28;;;;;;;2.63;1.55;;;14.30;99.90;;;;;;7360202;19;20011;-71
2023/10/14 13:19:58;;;;;;;1.40;1.30;;;14.30;99.90;;;;;;7359325;19;20006;-72
2023/10/14 13:22:29;;;;;;;6.43;4.07;;;14.10;99.90;;;;;;7364320;19;20015;-72